Wetterstation Vordersexau
Wetterdaten: Februar 2012
Datum Temp. A. Feuchte A. Luftdruck Regen Wind Richtung Taupunkt Windchill Windben
01.02.2012 -2,7 C 71 % 1018,2 hPa 0,0 l/m 2,6 km/h N-NO -7,5 C -3,6 C 1,5 km/h
02.02.2012 -5,7 C 62 % 1020,3 hPa 0,0 l/m 3,1 km/h N-NO -11,8 C -7,1 C 1,7 km/h
03.02.2012 -7,5 C 55 % 1027,4 hPa 0,0 l/m 1,3 km/h N-NO -15,4 C -8,1 C 0,7 km/h
04.02.2012 -8,9 C 61 % 1031,1 hPa 0,0 l/m 0,5 km/h SO -15,8 C -8,9 C 0,3 km/h
05.02.2012 -8,1 C 62 % 1027,7 hPa 0,0 l/m 0,9 km/h O-NO -14,5 C -8,3 C 0,5 km/h
06.02.2012 -8,5 C 61 % 1028,5 hPa 0,0 l/m 2,3 km/h NO -14,9 C -9,2 C 1,3 km/h
07.02.2012 -10,1 C 67 % 1028,2 hPa 0,0 l/m 2,0 km/h O-SO -15,1 C -10,7 C 1,1 km/h
08.02.2012 -5,5 C 65 % 1028,6 hPa 0,0 l/m 0,9 km/h N-NO -11,3 C -5,6 C 0,5 km/h
09.02.2012 -6,9 C 74 % 1030,3 hPa 0,0 l/m 0,5 km/h N-NO -11,0 C -6,9 C 0,3 km/h
10.02.2012 -7,0 C 71 % 1029,9 hPa 0,0 l/m 1,3 km/h O-SO -11,7 C -7,3 C 0,7 km/h
11.02.2012 -6,8 C 63 % 1025,9 hPa 0,0 l/m 2,0 km/h N-NO -12,9 C -7,6 C 1,1 km/h
12.02.2012 -8,4 C 66 % 1026,4 hPa 0,0 l/m 0,4 km/h W -14,0 C -8,4 C 0,2 km/h
13.02.2012 -5,5 C 70 % 1022,5 hPa 0,0 l/m 0,6 km/h O-NO -10,3 C -5,6 C 0,3 km/h
14.02.2012 -0,3 C 83 % 1015,9 hPa 0,7 l/m 0,4 km/h NO -2,8 C -0,3 C 0,2 km/h
15.02.2012 1,1 C 84 % 1014,3 hPa 7,1 l/m 11,6 km/h W-SW -1,3 C -3,8 C 6,5 km/h
16.02.2012 3,3 C 78 % 1022,4 hPa 1,4 l/m 0,3 km/h NO -0,4 C 3,3 C 0,2 km/h
17.02.2012 3,7 C 82 % 1024,1 hPa 0,0 l/m 1,0 km/h O-SO 0,9 C 3,5 C 0,6 km/h
18.02.2012 5,3 C 79 % 1018,3 hPa 0,0 l/m 2,0 km/h O-NO 1,7 C 4,8 C 1,1 km/h
19.02.2012 4,0 C 77 % 1018,2 hPa 3,2 l/m 7,2 km/h O-SO 0,2 C 1,5 C 4,0 km/h
20.02.2012 1,4 C 74 % 1029,9 hPa 0,0 l/m 0,2 km/h O-SO -3,2 C 1,4 C 0,1 km/h
21.02.2012 0,9 C 71 % 1030,2 hPa 0,0 l/m 0,8 km/h O-SO -4,3 C 0,9 C 0,4 km/h
22.02.2012 2,4 C 69 % 1028,1 hPa 0,0 l/m 0,5 km/h NO -3,4 C 2,3 C 0,3 km/h
23.02.2012 4,1 C 71 % 1025,6 hPa 0,0 l/m 7,1 km/h O-NO -0,9 C 2,0 C 3,9 km/h
24.02.2012 7,0 C 79 % 1027,3 hPa 0,0 l/m 0,5 km/h O-NO 3,5 C 7,0 C 0,3 km/h
25.02.2012 7,8 C 82 % 1023,2 hPa 1,4 l/m 0,2 km/h SO 4,8 C 7,8 C 0,1 km/h
26.02.2012 6,0 C 78 % 1023,0 hPa 0,7 l/m 1,2 km/h SO 2,5 C 5,8 C 0,7 km/h
27.02.2012 5,2 C 71 % 1024,9 hPa 0,0 l/m 1,6 km/h O-NO -0,2 C 4,8 C 0,9 km/h
28.02.2012 4,9 C 76 % 1024,1 hPa 0,0 l/m 0,0 km/h O-SO 0,8 C 4,9 C 0,0 km/h
29.02.2012 8,9 C 75 % 1022,5 hPa 0,0 l/m 1,5 km/h O-SO 4,4 C 8,9 C 0,8 km/h
Min-Datum 12.02.12 04.02.12 19.02.12 6 Tage 01.02.12 - 07.02.12 02.02.12 01.02.12
Min-Zeit 07:30 15:30 05:30 - 00:30 - 05:30 08:30 00:30
Minimum -15,7 C 32 % 1012,0 hPa - 0,0 km/h - -18,6 C -18,4 C 0,0 km/h
Max-Datum 29.02.12 01.02.12 04.02.12 15.02.12 23.02.12 - 29.02.12 29.02.12 23.02.12
Max-Zeit 16:30 03:30 19:30 13:30 12:30 - 16:30 16:30 12:30
Maximum 19,8 C 88 % 1031,8 hPa 7,1 l/m 42,8 km/h
O-NO
- 10,2 C 19,8 C 23,8 km/h
O-NO
Durchschnitt -0,9 C 72 % 1024,7 hPa #14,6 l/m 1,9 km/h O-SO -5,6 C -1,5 C 1,0 km/h

Durchschnitt Minimum Temp.-5,9 C
Durchschnitt Maximum Temp.6,6 C
www.sexauwetter.de